sensor_id;sensor_type;location;lat;lon;timestamp;P1;durP1;ratioP1;P2;durP2;ratioP2
3757;SDS011;1894;51.038;13.692;2023-12-20T00:00:46;4.17;;;3.47;;
3757;SDS011;1894;51.038;13.692;2023-12-20T00:03:17;3.60;;;2.87;;
3757;SDS011;1894;51.038;13.692;2023-12-20T00:05:45;3.17;;;2.80;;
3757;SDS011;1894;51.038;13.692;2023-12-20T00:08:52;3.63;;;2.63;;
3757;SDS011;1894;51.038;13.692;2023-12-20T00:11:21;2.40;;;2.27;;
3757;SDS011;1894;51.038;13.692;2023-12-20T00:13:48;3.77;;;3.37;;
3757;SDS011;1894;51.038;13.692;2023-12-20T00:16:20;3.30;;;3.07;;
3757;SDS011;1894;51.038;13.692;2023-12-20T00:19:08;3.07;;;2.13;;
3757;SDS011;1894;51.038;13.692;2023-12-20T00:21:36;2.33;;;1.90;;
3757;SDS011;1894;51.038;13.692;2023-12-20T00:24:03;2.50;;;1.80;;
3757;SDS011;1894;51.038;13.692;2023-12-20T00:26:33;2.67;;;2.37;;
3757;SDS011;1894;51.038;13.692;2023-12-20T00:29:26;2.43;;;2.23;;
3757;SDS011;1894;51.038;13.692;2023-12-20T00:31:53;2.13;;;1.97;;
3757;SDS011;1894;51.038;13.692;2023-12-20T00:34:29;2.90;;;2.00;;
3757;SDS011;1894;51.038;13.692;2023-12-20T00:36:57;2.70;;;2.50;;
3757;SDS011;1894;51.038;13.692;2023-12-20T00:39:29;2.53;;;2.20;;
3757;SDS011;1894;51.038;13.692;2023-12-20T00:42:06;2.40;;;2.20;;
3757;SDS011;1894;51.038;13.692;2023-12-20T00:44:33;3.40;;;2.30;;
3757;SDS011;1894;51.038;13.692;2023-12-20T00:47:21;2.00;;;1.80;;
3757;SDS011;1894;51.038;13.692;2023-12-20T00:52:41;2.00;;;1.80;;
3757;SDS011;1894;51.038;13.692;2023-12-20T00:55:08;2.90;;;1.47;;
3757;SDS011;1894;51.038;13.692;2023-12-20T00:57:35;1.70;;;1.60;;
3757;SDS011;1894;51.038;13.692;2023-12-20T01:00:02;3.30;;;2.00;;
3757;SDS011;1894;51.038;13.692;2023-12-20T01:02:31;1.70;;;1.60;;
3757;SDS011;1894;51.038;13.692;2023-12-20T01:04:58;1.63;;;1.53;;
3757;SDS011;1894;51.038;13.692;2023-12-20T01:07:25;1.60;;;1.47;;
3757;SDS011;1894;51.038;13.692;2023-12-20T01:09:56;1.70;;;1.60;;
3757;SDS011;1894;51.038;13.692;2023-12-20T01:12:24;1.60;;;1.50;;
3757;SDS011;1894;51.038;13.692;2023-12-20T01:14:56;1.10;;;1.00;;
3757;SDS011;1894;51.038;13.692;2023-12-20T01:17:25;1.97;;;1.37;;
3757;SDS011;1894;51.038;13.692;2023-12-20T01:19:52;1.47;;;1.37;;
3757;SDS011;1894;51.038;13.692;2023-12-20T01:22:19;2.73;;;1.33;;
3757;SDS011;1894;51.038;13.692;2023-12-20T01:24:46;1.30;;;1.20;;
3757;SDS011;1894;51.038;13.692;2023-12-20T01:27:14;2.37;;;1.37;;
3757;SDS011;1894;51.038;13.692;2023-12-20T01:29:41;2.17;;;1.40;;
3757;SDS011;1894;51.038;13.692;2023-12-20T01:32:09;1.20;;;1.03;;
3757;SDS011;1894;51.038;13.692;2023-12-20T01:34:36;1.23;;;1.03;;
3757;SDS011;1894;51.038;13.692;2023-12-20T01:37:03;1.30;;;1.20;;
3757;SDS011;1894;51.038;13.692;2023-12-20T01:39:31;1.17;;;1.07;;
3757;SDS011;1894;51.038;13.692;2023-12-20T01:41:58;1.03;;;1.00;;
3757;SDS011;1894;51.038;13.692;2023-12-20T01:44:25;4.70;;;1.30;;
3757;SDS011;1894;51.038;13.692;2023-12-20T01:46:53;1.50;;;1.20;;
3757;SDS011;1894;51.038;13.692;2023-12-20T01:49:21;1.67;;;1.00;;
3757;SDS011;1894;51.038;13.692;2023-12-20T01:51:49;1.13;;;1.03;;
3757;SDS011;1894;51.038;13.692;2023-12-20T01:54:17;1.30;;;1.20;;
3757;SDS011;1894;51.038;13.692;2023-12-20T01:56:47;3.67;;;1.10;;
3757;SDS011;1894;51.038;13.692;2023-12-20T01:59:17;0.90;;;0.80;;
3757;SDS011;1894;51.038;13.692;2023-12-20T02:02:00;2.13;;;1.17;;
3757;SDS011;1894;51.038;13.692;2023-12-20T02:04:30;0.87;;;0.87;;
3757;SDS011;1894;51.038;13.692;2023-12-20T02:06:57;1.10;;;1.00;;
3757;SDS011;1894;51.038;13.692;2023-12-20T02:09:26;1.47;;;0.80;;
3757;SDS011;1894;51.038;13.692;2023-12-20T02:11:54;1.20;;;1.10;;
3757;SDS011;1894;51.038;13.692;2023-12-20T02:14:21;0.97;;;0.87;;
3757;SDS011;1894;51.038;13.692;2023-12-20T02:16:48;0.97;;;0.90;;
3757;SDS011;1894;51.038;13.692;2023-12-20T02:19:16;0.90;;;0.80;;
3757;SDS011;1894;51.038;13.692;2023-12-20T02:21:46;1.37;;;0.80;;
3757;SDS011;1894;51.038;13.692;2023-12-20T02:27:06;1.10;;;0.87;;
3757;SDS011;1894;51.038;13.692;2023-12-20T02:29:34;0.60;;;0.60;;
3757;SDS011;1894;51.038;13.692;2023-12-20T02:32:02;2.40;;;0.90;;
3757;SDS011;1894;51.038;13.692;2023-12-20T02:34:30;0.60;;;0.60;;
3757;SDS011;1894;51.038;13.692;2023-12-20T02:36:57;0.80;;;0.80;;
3757;SDS011;1894;51.038;13.692;2023-12-20T02:39:24;0.70;;;0.70;;
3757;SDS011;1894;51.038;13.692;2023-12-20T02:41:59;2.00;;;0.80;;
3757;SDS011;1894;51.038;13.692;2023-12-20T02:44:26;0.80;;;0.70;;
3757;SDS011;1894;51.038;13.692;2023-12-20T02:47:02;0.70;;;0.70;;
3757;SDS011;1894;51.038;13.692;2023-12-20T02:52:25;0.70;;;0.60;;
3757;SDS011;1894;51.038;13.692;2023-12-20T02:54:54;0.70;;;0.70;;
3757;SDS011;1894;51.038;13.692;2023-12-20T02:57:21;0.70;;;0.70;;
3757;SDS011;1894;51.038;13.692;2023-12-20T02:59:48;2.10;;;0.90;;
3757;SDS011;1894;51.038;13.692;2023-12-20T03:02:16;0.70;;;0.67;;
3757;SDS011;1894;51.038;13.692;2023-12-20T03:04:43;0.90;;;0.70;;
3757;SDS011;1894;51.038;13.692;2023-12-20T03:07:10;0.70;;;0.70;;
3757;SDS011;1894;51.038;13.692;2023-12-20T03:09:51;0.60;;;0.60;;
3757;SDS011;1894;51.038;13.692;2023-12-20T03:12:51;0.70;;;0.70;;
3757;SDS011;1894;51.038;13.692;2023-12-20T03:15:18;0.60;;;0.60;;
3757;SDS011;1894;51.038;13.692;2023-12-20T03:17:54;0.60;;;0.60;;
3757;SDS011;1894;51.038;13.692;2023-12-20T03:20:24;0.70;;;0.70;;
3757;SDS011;1894;51.038;13.692;2023-12-20T03:22:52;0.60;;;0.60;;
3757;SDS011;1894;51.038;13.692;2023-12-20T03:25:19;2.30;;;0.70;;
3757;SDS011;1894;51.038;13.692;2023-12-20T03:27:47;1.27;;;1.00;;
3757;SDS011;1894;51.038;13.692;2023-12-20T03:30:14;0.70;;;0.60;;
3757;SDS011;1894;51.038;13.692;2023-12-20T03:32:42;0.50;;;0.50;;
3757;SDS011;1894;51.038;13.692;2023-12-20T03:35:10;0.70;;;0.60;;
3757;SDS011;1894;51.038;13.692;2023-12-20T03:37:38;0.70;;;0.70;;
3757;SDS011;1894;51.038;13.692;2023-12-20T03:44:17;0.60;;;0.60;;
3757;SDS011;1894;51.038;13.692;2023-12-20T03:46:45;1.07;;;0.70;;
3757;SDS011;1894;51.038;13.692;2023-12-20T03:53:34;0.50;;;0.40;;
3757;SDS011;1894;51.038;13.692;2023-12-20T03:56:02;0.50;;;0.50;;
3757;SDS011;1894;51.038;13.692;2023-12-20T03:58:30;0.70;;;0.60;;
3757;SDS011;1894;51.038;13.692;2023-12-20T04:00:57;1.43;;;0.70;;
3757;SDS011;1894;51.038;13.692;2023-12-20T04:03:24;0.60;;;0.50;;
3757;SDS011;1894;51.038;13.692;2023-12-20T04:05:52;0.60;;;0.60;;
3757;SDS011;1894;51.038;13.692;2023-12-20T04:08:19;0.80;;;0.73;;
3757;SDS011;1894;51.038;13.692;2023-12-20T04:10:47;0.50;;;0.50;;
3757;SDS011;1894;51.038;13.692;2023-12-20T04:13:14;0.73;;;0.60;;
3757;SDS011;1894;51.038;13.692;2023-12-20T04:15:49;0.50;;;0.50;;
3757;SDS011;1894;51.038;13.692;2023-12-20T04:18:19;0.60;;;0.60;;
3757;SDS011;1894;51.038;13.692;2023-12-20T04:21:17;0.90;;;0.50;;
3757;SDS011;1894;51.038;13.692;2023-12-20T04:23:54;0.60;;;0.53;;
3757;SDS011;1894;51.038;13.692;2023-12-20T04:26:21;0.53;;;0.50;;
3757;SDS011;1894;51.038;13.692;2023-12-20T04:29:01;0.60;;;0.60;;
3757;SDS011;1894;51.038;13.692;2023-12-20T04:34:52;3.17;;;0.80;;
3757;SDS011;1894;51.038;13.692;2023-12-20T04:37:19;0.73;;;0.70;;
3757;SDS011;1894;51.038;13.692;2023-12-20T04:39:51;0.70;;;0.70;;
3757;SDS011;1894;51.038;13.692;2023-12-20T04:42:24;0.70;;;0.70;;
3757;SDS011;1894;51.038;13.692;2023-12-20T04:44:58;0.77;;;0.77;;
3757;SDS011;1894;51.038;13.692;2023-12-20T04:47:26;0.70;;;0.70;;
3757;SDS011;1894;51.038;13.692;2023-12-20T04:49:53;0.60;;;0.53;;
3757;SDS011;1894;51.038;13.692;2023-12-20T04:52:20;0.67;;;0.67;;
3757;SDS011;1894;51.038;13.692;2023-12-20T04:54:48;0.70;;;0.70;;
3757;SDS011;1894;51.038;13.692;2023-12-20T04:57:15;0.60;;;0.60;;
3757;SDS011;1894;51.038;13.692;2023-12-20T05:00:04;1.50;;;0.70;;
3757;SDS011;1894;51.038;13.692;2023-12-20T05:02:32;0.63;;;0.60;;
3757;SDS011;1894;51.038;13.692;2023-12-20T05:04:59;0.70;;;0.70;;
3757;SDS011;1894;51.038;13.692;2023-12-20T05:07:32;0.70;;;0.70;;
3757;SDS011;1894;51.038;13.692;2023-12-20T05:10:09;0.60;;;0.60;;
3757;SDS011;1894;51.038;13.692;2023-12-20T05:13:13;0.90;;;0.70;;
3757;SDS011;1894;51.038;13.692;2023-12-20T05:15:40;0.60;;;0.50;;
3757;SDS011;1894;51.038;13.692;2023-12-20T05:18:08;0.50;;;0.50;;
3757;SDS011;1894;51.038;13.692;2023-12-20T05:20:35;0.70;;;0.70;;
3757;SDS011;1894;51.038;13.692;2023-12-20T05:23:03;0.73;;;0.70;;
3757;SDS011;1894;51.038;13.692;2023-12-20T05:25:30;0.57;;;0.57;;
3757;SDS011;1894;51.038;13.692;2023-12-20T05:27:58;0.80;;;0.70;;
3757;SDS011;1894;51.038;13.692;2023-12-20T05:30:25;1.33;;;0.63;;
3757;SDS011;1894;51.038;13.692;2023-12-20T05:32:53;1.23;;;0.60;;
3757;SDS011;1894;51.038;13.692;2023-12-20T05:35:28;0.70;;;0.70;;
3757;SDS011;1894;51.038;13.692;2023-12-20T05:37:55;0.60;;;0.60;;
3757;SDS011;1894;51.038;13.692;2023-12-20T05:40:23;0.70;;;0.60;;
3757;SDS011;1894;51.038;13.692;2023-12-20T05:42:50;0.60;;;0.60;;
3757;SDS011;1894;51.038;13.692;2023-12-20T05:45:17;0.70;;;0.70;;
3757;SDS011;1894;51.038;13.692;2023-12-20T05:47:48;0.63;;;0.60;;
3757;SDS011;1894;51.038;13.692;2023-12-20T05:50:15;1.73;;;0.50;;
3757;SDS011;1894;51.038;13.692;2023-12-20T05:52:43;0.80;;;0.60;;
3757;SDS011;1894;51.038;13.692;2023-12-20T05:55:10;0.60;;;0.50;;
3757;SDS011;1894;51.038;13.692;2023-12-20T05:57:37;0.53;;;0.50;;
3757;SDS011;1894;51.038;13.692;2023-12-20T06:00:04;1.37;;;0.70;;
3757;SDS011;1894;51.038;13.692;2023-12-20T06:02:37;0.70;;;0.70;;
3757;SDS011;1894;51.038;13.692;2023-12-20T06:05:04;1.47;;;0.53;;
3757;SDS011;1894;51.038;13.692;2023-12-20T06:07:33;0.60;;;0.60;;
3757;SDS011;1894;51.038;13.692;2023-12-20T06:10:00;1.00;;;0.60;;
3757;SDS011;1894;51.038;13.692;2023-12-20T06:12:27;0.60;;;0.60;;
3757;SDS011;1894;51.038;13.692;2023-12-20T06:14:55;0.70;;;0.60;;
3757;SDS011;1894;51.038;13.692;2023-12-20T06:17:24;0.70;;;0.70;;
3757;SDS011;1894;51.038;13.692;2023-12-20T06:19:51;1.00;;;0.70;;
3757;SDS011;1894;51.038;13.692;2023-12-20T06:22:18;0.70;;;0.70;;
3757;SDS011;1894;51.038;13.692;2023-12-20T06:24:46;0.93;;;0.90;;
3757;SDS011;1894;51.038;13.692;2023-12-20T06:27:13;1.13;;;1.03;;
3757;SDS011;1894;51.038;13.692;2023-12-20T06:29:41;0.83;;;0.80;;
3757;SDS011;1894;51.038;13.692;2023-12-20T06:32:10;0.80;;;0.80;;
3757;SDS011;1894;51.038;13.692;2023-12-20T06:34:38;0.90;;;0.90;;
3757;SDS011;1894;51.038;13.692;2023-12-20T06:37:05;1.07;;;0.77;;
3757;SDS011;1894;51.038;13.692;2023-12-20T06:39:32;3.03;;;1.10;;
3757;SDS011;1894;51.038;13.692;2023-12-20T06:42:00;2.30;;;0.80;;
3757;SDS011;1894;51.038;13.692;2023-12-20T06:44:27;2.50;;;0.80;;
3757;SDS011;1894;51.038;13.692;2023-12-20T06:46:55;1.57;;;1.10;;
3757;SDS011;1894;51.038;13.692;2023-12-20T06:49:22;1.93;;;1.00;;
3757;SDS011;1894;51.038;13.692;2023-12-20T06:51:50;1.73;;;0.90;;
3757;SDS011;1894;51.038;13.692;2023-12-20T06:54:17;1.43;;;1.03;;
3757;SDS011;1894;51.038;13.692;2023-12-20T06:56:45;1.20;;;1.10;;
3757;SDS011;1894;51.038;13.692;2023-12-20T06:59:12;1.10;;;1.00;;
3757;SDS011;1894;51.038;13.692;2023-12-20T07:01:39;1.97;;;1.30;;
3757;SDS011;1894;51.038;13.692;2023-12-20T07:04:07;1.30;;;1.20;;
3757;SDS011;1894;51.038;13.692;2023-12-20T07:06:35;1.20;;;1.10;;
3757;SDS011;1894;51.038;13.692;2023-12-20T07:09:02;1.50;;;1.30;;
3757;SDS011;1894;51.038;13.692;2023-12-20T07:11:29;1.20;;;1.10;;
3757;SDS011;1894;51.038;13.692;2023-12-20T07:13:56;1.57;;;1.47;;
3757;SDS011;1894;51.038;13.692;2023-12-20T07:16:24;1.43;;;1.33;;
3757;SDS011;1894;51.038;13.692;2023-12-20T07:18:51;2.43;;;1.33;;
3757;SDS011;1894;51.038;13.692;2023-12-20T07:21:19;1.63;;;1.53;;
3757;SDS011;1894;51.038;13.692;2023-12-20T07:23:46;1.40;;;1.30;;
3757;SDS011;1894;51.038;13.692;2023-12-20T07:26:13;2.30;;;2.00;;
3757;SDS011;1894;51.038;13.692;2023-12-20T07:28:42;7.40;;;1.60;;
3757;SDS011;1894;51.038;13.692;2023-12-20T07:31:09;2.50;;;2.30;;
3757;SDS011;1894;51.038;13.692;2023-12-20T07:33:36;2.37;;;1.50;;
3757;SDS011;1894;51.038;13.692;2023-12-20T07:36:05;2.03;;;1.70;;
3757;SDS011;1894;51.038;13.692;2023-12-20T07:38:33;2.37;;;2.00;;
3757;SDS011;1894;51.038;13.692;2023-12-20T07:41:01;1.70;;;1.30;;
3757;SDS011;1894;51.038;13.692;2023-12-20T07:43:28;2.60;;;2.40;;
3757;SDS011;1894;51.038;13.692;2023-12-20T07:45:55;6.40;;;2.27;;
3757;SDS011;1894;51.038;13.692;2023-12-20T07:48:23;9.53;;;2.13;;
3757;SDS011;1894;51.038;13.692;2023-12-20T07:50:50;2.73;;;2.43;;
3757;SDS011;1894;51.038;13.692;2023-12-20T07:53:19;2.63;;;2.20;;
3757;SDS011;1894;51.038;13.692;2023-12-20T07:55:46;3.70;;;2.27;;
3757;SDS011;1894;51.038;13.692;2023-12-20T07:58:14;2.57;;;2.37;;
3757;SDS011;1894;51.038;13.692;2023-12-20T08:00:41;2.60;;;1.90;;
3757;SDS011;1894;51.038;13.692;2023-12-20T08:03:08;5.20;;;2.50;;
3757;SDS011;1894;51.038;13.692;2023-12-20T08:05:36;2.73;;;2.27;;
3757;SDS011;1894;51.038;13.692;2023-12-20T08:08:06;2.90;;;1.80;;
3757;SDS011;1894;51.038;13.692;2023-12-20T08:10:34;1.70;;;1.60;;
3757;SDS011;1894;51.038;13.692;2023-12-20T08:13:02;4.60;;;2.17;;
3757;SDS011;1894;51.038;13.692;2023-12-20T08:15:29;2.93;;;2.17;;
3757;SDS011;1894;51.038;13.692;2023-12-20T08:17:57;2.57;;;2.20;;
3757;SDS011;1894;51.038;13.692;2023-12-20T08:20:24;4.30;;;2.07;;
3757;SDS011;1894;51.038;13.692;2023-12-20T08:23:05;3.00;;;1.40;;
3757;SDS011;1894;51.038;13.692;2023-12-20T08:25:32;2.40;;;1.30;;
3757;SDS011;1894;51.038;13.692;2023-12-20T08:27:59;6.20;;;1.57;;
3757;SDS011;1894;51.038;13.692;2023-12-20T08:30:28;1.73;;;1.30;;
3757;SDS011;1894;51.038;13.692;2023-12-20T08:32:59;3.53;;;1.37;;
3757;SDS011;1894;51.038;13.692;2023-12-20T08:35:27;3.77;;;1.17;;
3757;SDS011;1894;51.038;13.692;2023-12-20T08:37:55;2.80;;;1.20;;
3757;SDS011;1894;51.038;13.692;2023-12-20T08:40:23;1.83;;;1.10;;
3757;SDS011;1894;51.038;13.692;2023-12-20T08:42:50;2.13;;;1.60;;
3757;SDS011;1894;51.038;13.692;2023-12-20T08:45:17;2.80;;;1.20;;
3757;SDS011;1894;51.038;13.692;2023-12-20T08:47:49;1.87;;;1.00;;
3757;SDS011;1894;51.038;13.692;2023-12-20T08:50:18;5.87;;;1.50;;
3757;SDS011;1894;51.038;13.692;2023-12-20T08:52:45;5.27;;;1.00;;
3757;SDS011;1894;51.038;13.692;2023-12-20T08:55:13;1.23;;;0.90;;
3757;SDS011;1894;51.038;13.692;2023-12-20T08:57:42;1.67;;;0.83;;
3757;SDS011;1894;51.038;13.692;2023-12-20T09:00:10;1.83;;;0.70;;
3757;SDS011;1894;51.038;13.692;2023-12-20T09:02:38;2.73;;;0.90;;
3757;SDS011;1894;51.038;13.692;2023-12-20T09:05:06;1.00;;;0.77;;
3757;SDS011;1894;51.038;13.692;2023-12-20T09:07:34;2.13;;;0.63;;
3757;SDS011;1894;51.038;13.692;2023-12-20T09:10:02;3.00;;;1.00;;
3757;SDS011;1894;51.038;13.692;2023-12-20T09:12:30;2.10;;;1.00;;
3757;SDS011;1894;51.038;13.692;2023-12-20T09:14:57;4.30;;;0.70;;
3757;SDS011;1894;51.038;13.692;2023-12-20T09:17:24;1.23;;;1.13;;
3757;SDS011;1894;51.038;13.692;2023-12-20T09:19:52;2.30;;;0.93;;
3757;SDS011;1894;51.038;13.692;2023-12-20T09:22:21;7.23;;;1.10;;
3757;SDS011;1894;51.038;13.692;2023-12-20T09:24:48;2.23;;;0.93;;
3757;SDS011;1894;51.038;13.692;2023-12-20T09:27:16;5.13;;;1.23;;
3757;SDS011;1894;51.038;13.692;2023-12-20T09:29:43;8.67;;;1.20;;
3757;SDS011;1894;51.038;13.692;2023-12-20T09:32:10;2.90;;;0.90;;
3757;SDS011;1894;51.038;13.692;2023-12-20T09:34:38;3.57;;;0.80;;
3757;SDS011;1894;51.038;13.692;2023-12-20T09:37:05;2.90;;;0.93;;
3757;SDS011;1894;51.038;13.692;2023-12-20T09:39:34;2.70;;;0.90;;
3757;SDS011;1894;51.038;13.692;2023-12-20T09:42:02;2.73;;;1.00;;
3757;SDS011;1894;51.038;13.692;2023-12-20T09:44:32;1.63;;;1.23;;
3757;SDS011;1894;51.038;13.692;2023-12-20T09:47:02;3.10;;;1.80;;
3757;SDS011;1894;51.038;13.692;2023-12-20T09:49:31;8.37;;;1.73;;
3757;SDS011;1894;51.038;13.692;2023-12-20T09:52:00;2.50;;;1.43;;
3757;SDS011;1894;51.038;13.692;2023-12-20T09:54:28;6.50;;;1.47;;
3757;SDS011;1894;51.038;13.692;2023-12-20T09:56:57;3.40;;;1.27;;
3757;SDS011;1894;51.038;13.692;2023-12-20T09:59:24;3.30;;;1.10;;
3757;SDS011;1894;51.038;13.692;2023-12-20T10:01:51;1.17;;;0.70;;
3757;SDS011;1894;51.038;13.692;2023-12-20T10:04:24;2.70;;;1.20;;
3757;SDS011;1894;51.038;13.692;2023-12-20T10:06:56;3.40;;;1.00;;
3757;SDS011;1894;51.038;13.692;2023-12-20T10:09:24;2.07;;;1.23;;
3757;SDS011;1894;51.038;13.692;2023-12-20T10:11:54;6.50;;;1.20;;
3757;SDS011;1894;51.038;13.692;2023-12-20T10:14:21;3.47;;;1.40;;
3757;SDS011;1894;51.038;13.692;2023-12-20T10:16:50;7.23;;;1.83;;
3757;SDS011;1894;51.038;13.692;2023-12-20T10:19:17;1.97;;;1.00;;
3757;SDS011;1894;51.038;13.692;2023-12-20T10:21:46;4.10;;;1.00;;
3757;SDS011;1894;51.038;13.692;2023-12-20T10:24:17;0.87;;;0.70;;
3757;SDS011;1894;51.038;13.692;2023-12-20T10:26:44;4.50;;;0.90;;
3757;SDS011;1894;51.038;13.692;2023-12-20T10:29:12;2.60;;;0.93;;
3757;SDS011;1894;51.038;13.692;2023-12-20T10:31:40;4.07;;;0.90;;
3757;SDS011;1894;51.038;13.692;2023-12-20T10:34:09;5.23;;;1.00;;
3757;SDS011;1894;51.038;13.692;2023-12-20T10:36:37;1.97;;;0.97;;
3757;SDS011;1894;51.038;13.692;2023-12-20T10:39:04;5.70;;;1.10;;
3757;SDS011;1894;51.038;13.692;2023-12-20T10:41:35;2.00;;;0.80;;
3757;SDS011;1894;51.038;13.692;2023-12-20T10:44:07;5.63;;;1.23;;
3757;SDS011;1894;51.038;13.692;2023-12-20T10:46:37;6.60;;;1.40;;
3757;SDS011;1894;51.038;13.692;2023-12-20T10:49:07;2.20;;;1.00;;
3757;SDS011;1894;51.038;13.692;2023-12-20T10:51:36;2.50;;;1.20;;
3757;SDS011;1894;51.038;13.692;2023-12-20T10:54:05;4.10;;;1.30;;
3757;SDS011;1894;51.038;13.692;2023-12-20T10:56:33;5.10;;;1.10;;
3757;SDS011;1894;51.038;13.692;2023-12-20T10:59:02;2.60;;;1.07;;
3757;SDS011;1894;51.038;13.692;2023-12-20T11:01:31;3.20;;;1.17;;
3757;SDS011;1894;51.038;13.692;2023-12-20T11:04:01;2.27;;;1.00;;
3757;SDS011;1894;51.038;13.692;2023-12-20T11:06:36;4.47;;;1.10;;
3757;SDS011;1894;51.038;13.692;2023-12-20T11:14:48;2.90;;;1.00;;
3757;SDS011;1894;51.038;13.692;2023-12-20T11:17:24;5.67;;;1.07;;
3757;SDS011;1894;51.038;13.692;2023-12-20T11:22:24;3.40;;;1.30;;
3757;SDS011;1894;51.038;13.692;2023-12-20T11:25:04;2.30;;;1.07;;
3757;SDS011;1894;51.038;13.692;2023-12-20T11:27:40;5.80;;;1.07;;
3757;SDS011;1894;51.038;13.692;2023-12-20T11:30:15;2.20;;;0.90;;
3757;SDS011;1894;51.038;13.692;2023-12-20T11:32:45;1.97;;;1.00;;
3757;SDS011;1894;51.038;13.692;2023-12-20T11:37:40;2.30;;;1.30;;
3757;SDS011;1894;51.038;13.692;2023-12-20T11:40:17;1.70;;;1.40;;
3757;SDS011;1894;51.038;13.692;2023-12-20T11:42:50;4.23;;;1.57;;
3757;SDS011;1894;51.038;13.692;2023-12-20T11:45:20;4.40;;;1.20;;
3757;SDS011;1894;51.038;13.692;2023-12-20T11:47:53;1.63;;;1.43;;
3757;SDS011;1894;51.038;13.692;2023-12-20T11:50:21;9.00;;;1.60;;
3757;SDS011;1894;51.038;13.692;2023-12-20T11:52:50;4.43;;;1.23;;
3757;SDS011;1894;51.038;13.692;2023-12-20T11:55:19;2.10;;;1.30;;
3757;SDS011;1894;51.038;13.692;2023-12-20T11:57:47;2.03;;;1.30;;
3757;SDS011;1894;51.038;13.692;2023-12-20T12:00:15;2.47;;;1.27;;
3757;SDS011;1894;51.038;13.692;2023-12-20T12:02:43;2.00;;;1.20;;
3757;SDS011;1894;51.038;13.692;2023-12-20T12:05:14;1.77;;;1.17;;
3757;SDS011;1894;51.038;13.692;2023-12-20T12:07:41;4.70;;;1.30;;
3757;SDS011;1894;51.038;13.692;2023-12-20T12:10:15;2.40;;;1.20;;
3757;SDS011;1894;51.038;13.692;2023-12-20T12:12:43;2.60;;;1.03;;
3757;SDS011;1894;51.038;13.692;2023-12-20T12:15:12;3.43;;;1.60;;
3757;SDS011;1894;51.038;13.692;2023-12-20T12:17:39;2.70;;;1.20;;
3757;SDS011;1894;51.038;13.692;2023-12-20T12:20:12;4.47;;;1.63;;
3757;SDS011;1894;51.038;13.692;2023-12-20T12:22:40;2.87;;;1.83;;
3757;SDS011;1894;51.038;13.692;2023-12-20T12:25:11;5.47;;;1.50;;
3757;SDS011;1894;51.038;13.692;2023-12-20T12:27:41;2.70;;;1.53;;
3757;SDS011;1894;51.038;13.692;2023-12-20T12:30:10;6.03;;;1.50;;
3757;SDS011;1894;51.038;13.692;2023-12-20T12:32:39;1.60;;;1.30;;
3757;SDS011;1894;51.038;13.692;2023-12-20T12:35:07;4.13;;;1.80;;
3757;SDS011;1894;51.038;13.692;2023-12-20T12:37:39;4.30;;;1.40;;
3757;SDS011;1894;51.038;13.692;2023-12-20T12:40:11;1.90;;;1.57;;
3757;SDS011;1894;51.038;13.692;2023-12-20T12:42:41;5.00;;;1.77;;
3757;SDS011;1894;51.038;13.692;2023-12-20T12:45:11;7.27;;;1.40;;
3757;SDS011;1894;51.038;13.692;2023-12-20T12:47:38;5.53;;;1.37;;
3757;SDS011;1894;51.038;13.692;2023-12-20T12:50:06;4.63;;;1.67;;
3757;SDS011;1894;51.038;13.692;2023-12-20T12:52:34;4.90;;;1.90;;
3757;SDS011;1894;51.038;13.692;2023-12-20T12:55:02;3.93;;;1.20;;
3757;SDS011;1894;51.038;13.692;2023-12-20T12:57:32;3.90;;;1.60;;
3757;SDS011;1894;51.038;13.692;2023-12-20T13:00:00;10.43;;;2.80;;
3757;SDS011;1894;51.038;13.692;2023-12-20T13:02:29;2.63;;;1.50;;
3757;SDS011;1894;51.038;13.692;2023-12-20T13:04:57;2.27;;;1.70;;
3757;SDS011;1894;51.038;13.692;2023-12-20T13:07:25;3.23;;;1.70;;
3757;SDS011;1894;51.038;13.692;2023-12-20T13:09:53;3.10;;;2.17;;
3757;SDS011;1894;51.038;13.692;2023-12-20T13:12:20;4.23;;;1.70;;
3757;SDS011;1894;51.038;13.692;2023-12-20T13:14:48;5.80;;;2.30;;
3757;SDS011;1894;51.038;13.692;2023-12-20T13:17:15;4.67;;;1.50;;
3757;SDS011;1894;51.038;13.692;2023-12-20T13:19:43;8.10;;;2.53;;
3757;SDS011;1894;51.038;13.692;2023-12-20T13:22:10;5.40;;;2.00;;
3757;SDS011;1894;51.038;13.692;2023-12-20T13:24:37;4.20;;;1.90;;
3757;SDS011;1894;51.038;13.692;2023-12-20T13:27:05;5.40;;;1.67;;
3757;SDS011;1894;51.038;13.692;2023-12-20T13:29:32;3.20;;;1.67;;
3757;SDS011;1894;51.038;13.692;2023-12-20T13:32:02;3.10;;;2.00;;
3757;SDS011;1894;51.038;13.692;2023-12-20T13:34:30;5.13;;;1.70;;
3757;SDS011;1894;51.038;13.692;2023-12-20T13:36:58;5.23;;;2.10;;
3757;SDS011;1894;51.038;13.692;2023-12-20T13:39:25;3.27;;;1.53;;
3757;SDS011;1894;51.038;13.692;2023-12-20T13:41:53;2.40;;;1.57;;
3757;SDS011;1894;51.038;13.692;2023-12-20T13:44:22;5.07;;;1.90;;
3757;SDS011;1894;51.038;13.692;2023-12-20T13:46:49;3.10;;;1.70;;
3757;SDS011;1894;51.038;13.692;2023-12-20T13:49:16;3.20;;;1.80;;
3757;SDS011;1894;51.038;13.692;2023-12-20T13:51:44;2.80;;;1.57;;
3757;SDS011;1894;51.038;13.692;2023-12-20T13:54:11;4.03;;;1.20;;
3757;SDS011;1894;51.038;13.692;2023-12-20T13:56:39;6.20;;;1.10;;
3757;SDS011;1894;51.038;13.692;2023-12-20T13:59:22;4.20;;;1.33;;
3757;SDS011;1894;51.038;13.692;2023-12-20T14:01:49;9.50;;;1.60;;
3757;SDS011;1894;51.038;13.692;2023-12-20T14:04:17;2.83;;;1.27;;
3757;SDS011;1894;51.038;13.692;2023-12-20T14:07:04;2.80;;;1.30;;
3757;SDS011;1894;51.038;13.692;2023-12-20T14:09:34;1.70;;;1.07;;
3757;SDS011;1894;51.038;13.692;2023-12-20T14:12:01;4.03;;;1.20;;
3757;SDS011;1894;51.038;13.692;2023-12-20T14:14:29;4.73;;;1.03;;
3757;SDS011;1894;51.038;13.692;2023-12-20T14:16:56;1.93;;;1.00;;
3757;SDS011;1894;51.038;13.692;2023-12-20T14:19:23;2.43;;;1.07;;
3757;SDS011;1894;51.038;13.692;2023-12-20T14:21:51;3.23;;;1.17;;
3757;SDS011;1894;51.038;13.692;2023-12-20T14:24:19;2.60;;;1.70;;
3757;SDS011;1894;51.038;13.692;2023-12-20T14:26:46;2.03;;;1.30;;
3757;SDS011;1894;51.038;13.692;2023-12-20T14:29:13;3.13;;;1.10;;
3757;SDS011;1894;51.038;13.692;2023-12-20T14:31:41;5.57;;;1.27;;
3757;SDS011;1894;51.038;13.692;2023-12-20T14:34:08;4.53;;;1.13;;
3757;SDS011;1894;51.038;13.692;2023-12-20T14:36:35;2.90;;;0.93;;
3757;SDS011;1894;51.038;13.692;2023-12-20T14:39:03;3.30;;;1.00;;
3757;SDS011;1894;51.038;13.692;2023-12-20T14:41:31;1.27;;;0.90;;
3757;SDS011;1894;51.038;13.692;2023-12-20T14:43:59;5.53;;;2.77;;
3757;SDS011;1894;51.038;13.692;2023-12-20T14:46:27;1.20;;;0.90;;
3757;SDS011;1894;51.038;13.692;2023-12-20T14:48:55;1.93;;;0.97;;
3757;SDS011;1894;51.038;13.692;2023-12-20T14:51:23;3.10;;;1.30;;
3757;SDS011;1894;51.038;13.692;2023-12-20T14:53:51;4.40;;;1.00;;
3757;SDS011;1894;51.038;13.692;2023-12-20T14:56:19;1.87;;;0.80;;
3757;SDS011;1894;51.038;13.692;2023-12-20T14:58:46;2.40;;;1.20;;
3757;SDS011;1894;51.038;13.692;2023-12-20T15:01:19;2.20;;;1.03;;
3757;SDS011;1894;51.038;13.692;2023-12-20T15:03:48;1.00;;;0.90;;
3757;SDS011;1894;51.038;13.692;2023-12-20T15:06:16;3.03;;;1.00;;
3757;SDS011;1894;51.038;13.692;2023-12-20T15:08:43;1.63;;;1.07;;
3757;SDS011;1894;51.038;13.692;2023-12-20T15:11:11;2.20;;;0.97;;
3757;SDS011;1894;51.038;13.692;2023-12-20T15:13:40;2.37;;;1.33;;
3757;SDS011;1894;51.038;13.692;2023-12-20T15:16:07;7.33;;;1.83;;
3757;SDS011;1894;51.038;13.692;2023-12-20T15:18:34;1.03;;;0.80;;
3757;SDS011;1894;51.038;13.692;2023-12-20T15:21:02;1.10;;;0.90;;
3757;SDS011;1894;51.038;13.692;2023-12-20T15:23:31;2.67;;;1.17;;
3757;SDS011;1894;51.038;13.692;2023-12-20T15:26:00;3.47;;;1.40;;
3757;SDS011;1894;51.038;13.692;2023-12-20T15:28:27;1.67;;;1.30;;
3757;SDS011;1894;51.038;13.692;2023-12-20T15:30:57;2.00;;;1.20;;
3757;SDS011;1894;51.038;13.692;2023-12-20T15:33:24;1.83;;;1.00;;
3757;SDS011;1894;51.038;13.692;2023-12-20T15:35:51;2.80;;;1.17;;
3757;SDS011;1894;51.038;13.692;2023-12-20T15:38:20;1.80;;;0.80;;
3757;SDS011;1894;51.038;13.692;2023-12-20T15:40:48;1.70;;;0.90;;
3757;SDS011;1894;51.038;13.692;2023-12-20T15:43:23;2.23;;;1.17;;